Terminal Aerodrome Forecast
Issued by NWS St Louis, MO

Home | Current Version | Previous Version | Text Only | Print | Product List | Glossary On
Versions: 1 2 3 4 5 6 7 8 9 10 11 12 13 14 15 16 17 18 19 20 21 22
000
FTUS43 KLSX 031120
TAFSTL
TAF
KSTL 031120Z 0312/0418 25009KT P6SM BKN150
     FM031500 28008KT P6SM SCT040 SCT100
     FM040000 36003KT P6SM SCT050 BKN150=

USA.gov is the U.S. government's official web portal to all federal, state and local government web resources and services.